sensor_id;sensor_type;location;lat;lon;timestamp;P1;durP1;ratioP1;P2;durP2;ratioP2
19599;SDS011;9947;57.722;12.012;2023-09-08T00:01:15;0.80;;;0.80;;
19599;SDS011;9947;57.722;12.012;2023-09-08T00:03:43;0.70;;;0.70;;
19599;SDS011;9947;57.722;12.012;2023-09-08T00:06:12;0.80;;;0.80;;
19599;SDS011;9947;57.722;12.012;2023-09-08T00:08:41;0.80;;;0.80;;
19599;SDS011;9947;57.722;12.012;2023-09-08T00:11:13;0.73;;;0.73;;
19599;SDS011;9947;57.722;12.012;2023-09-08T00:13:44;1.23;;;1.23;;
19599;SDS011;9947;57.722;12.012;2023-09-08T00:16:15;0.70;;;0.70;;
19599;SDS011;9947;57.722;12.012;2023-09-08T00:18:45;0.70;;;0.70;;
19599;SDS011;9947;57.722;12.012;2023-09-08T00:21:13;0.80;;;0.80;;
19599;SDS011;9947;57.722;12.012;2023-09-08T00:23:50;0.80;;;0.80;;
19599;SDS011;9947;57.722;12.012;2023-09-08T00:26:19;0.70;;;0.70;;
19599;SDS011;9947;57.722;12.012;2023-09-08T00:28:51;0.80;;;0.80;;
19599;SDS011;9947;57.722;12.012;2023-09-08T00:31:19;0.80;;;0.80;;
19599;SDS011;9947;57.722;12.012;2023-09-08T00:33:51;0.80;;;0.80;;
19599;SDS011;9947;57.722;12.012;2023-09-08T00:36:18;0.70;;;0.70;;
19599;SDS011;9947;57.722;12.012;2023-09-08T00:38:48;0.60;;;0.60;;
19599;SDS011;9947;57.722;12.012;2023-09-08T00:41:22;0.80;;;0.80;;
19599;SDS011;9947;57.722;12.012;2023-09-08T00:43:50;1.70;;;1.60;;
19599;SDS011;9947;57.722;12.012;2023-09-08T00:46:21;0.80;;;0.80;;
19599;SDS011;9947;57.722;12.012;2023-09-08T00:48:48;0.80;;;0.80;;
19599;SDS011;9947;57.722;12.012;2023-09-08T00:51:17;0.70;;;0.70;;
19599;SDS011;9947;57.722;12.012;2023-09-08T00:54:05;0.77;;;0.77;;
19599;SDS011;9947;57.722;12.012;2023-09-08T00:56:37;0.80;;;0.80;;
19599;SDS011;9947;57.722;12.012;2023-09-08T00:59:06;0.70;;;0.70;;
19599;SDS011;9947;57.722;12.012;2023-09-08T01:01:35;0.80;;;0.80;;
19599;SDS011;9947;57.722;12.012;2023-09-08T01:04:04;0.70;;;0.70;;
19599;SDS011;9947;57.722;12.012;2023-09-08T01:06:34;0.70;;;0.70;;
19599;SDS011;9947;57.722;12.012;2023-09-08T01:09:03;0.70;;;0.70;;
19599;SDS011;9947;57.722;12.012;2023-09-08T01:11:34;0.70;;;0.70;;
19599;SDS011;9947;57.722;12.012;2023-09-08T01:14:08;0.70;;;0.70;;
19599;SDS011;9947;57.722;12.012;2023-09-08T01:16:38;0.80;;;0.80;;
19599;SDS011;9947;57.722;12.012;2023-09-08T01:19:10;0.80;;;0.80;;
19599;SDS011;9947;57.722;12.012;2023-09-08T01:21:54;0.70;;;0.70;;
19599;SDS011;9947;57.722;12.012;2023-09-08T01:28:09;0.90;;;0.90;;
19599;SDS011;9947;57.722;12.012;2023-09-08T01:30:40;0.80;;;0.80;;
19599;SDS011;9947;57.722;12.012;2023-09-08T01:33:07;0.80;;;0.80;;
19599;SDS011;9947;57.722;12.012;2023-09-08T01:35:35;0.70;;;0.70;;
19599;SDS011;9947;57.722;12.012;2023-09-08T01:38:03;0.80;;;0.80;;
19599;SDS011;9947;57.722;12.012;2023-09-08T01:40:33;0.80;;;0.80;;
19599;SDS011;9947;57.722;12.012;2023-09-08T01:43:01;0.70;;;0.70;;
19599;SDS011;9947;57.722;12.012;2023-09-08T01:45:29;0.77;;;0.77;;
19599;SDS011;9947;57.722;12.012;2023-09-08T01:48:00;0.70;;;0.70;;
19599;SDS011;9947;57.722;12.012;2023-09-08T01:50:28;0.80;;;0.80;;
19599;SDS011;9947;57.722;12.012;2023-09-08T01:52:56;0.80;;;0.80;;
19599;SDS011;9947;57.722;12.012;2023-09-08T01:55:23;0.80;;;0.80;;
19599;SDS011;9947;57.722;12.012;2023-09-08T01:57:55;0.80;;;0.80;;
19599;SDS011;9947;57.722;12.012;2023-09-08T02:00:23;0.80;;;0.80;;
19599;SDS011;9947;57.722;12.012;2023-09-08T02:02:50;0.80;;;0.80;;
19599;SDS011;9947;57.722;12.012;2023-09-08T02:05:35;0.80;;;0.80;;
19599;SDS011;9947;57.722;12.012;2023-09-08T02:08:04;0.80;;;0.80;;
19599;SDS011;9947;57.722;12.012;2023-09-08T02:10:36;0.80;;;0.80;;
19599;SDS011;9947;57.722;12.012;2023-09-08T02:13:09;0.80;;;0.80;;
19599;SDS011;9947;57.722;12.012;2023-09-08T02:15:39;0.90;;;0.90;;
19599;SDS011;9947;57.722;12.012;2023-09-08T02:18:09;0.80;;;0.80;;
19599;SDS011;9947;57.722;12.012;2023-09-08T02:20:37;0.67;;;0.67;;
19599;SDS011;9947;57.722;12.012;2023-09-08T02:23:07;0.90;;;0.90;;
19599;SDS011;9947;57.722;12.012;2023-09-08T02:25:34;0.80;;;0.80;;
19599;SDS011;9947;57.722;12.012;2023-09-08T02:28:05;0.80;;;0.80;;
19599;SDS011;9947;57.722;12.012;2023-09-08T02:30:56;0.70;;;0.70;;
19599;SDS011;9947;57.722;12.012;2023-09-08T02:33:24;0.90;;;0.90;;
19599;SDS011;9947;57.722;12.012;2023-09-08T02:35:52;0.80;;;0.80;;
19599;SDS011;9947;57.722;12.012;2023-09-08T02:38:21;0.83;;;0.83;;
19599;SDS011;9947;57.722;12.012;2023-09-08T02:40:51;0.80;;;0.80;;
19599;SDS011;9947;57.722;12.012;2023-09-08T02:43:19;0.80;;;0.80;;
19599;SDS011;9947;57.722;12.012;2023-09-08T02:45:58;0.87;;;0.87;;
19599;SDS011;9947;57.722;12.012;2023-09-08T02:48:26;0.70;;;0.70;;
19599;SDS011;9947;57.722;12.012;2023-09-08T02:50:54;0.80;;;0.80;;
19599;SDS011;9947;57.722;12.012;2023-09-08T02:53:22;0.70;;;0.70;;
19599;SDS011;9947;57.722;12.012;2023-09-08T02:55:53;0.70;;;0.70;;
19599;SDS011;9947;57.722;12.012;2023-09-08T02:58:24;0.70;;;0.70;;
19599;SDS011;9947;57.722;12.012;2023-09-08T03:03:29;0.70;;;0.70;;
19599;SDS011;9947;57.722;12.012;2023-09-08T03:05:56;0.90;;;0.90;;
19599;SDS011;9947;57.722;12.012;2023-09-08T03:08:28;0.70;;;0.70;;
19599;SDS011;9947;57.722;12.012;2023-09-08T03:10:58;0.70;;;0.70;;
19599;SDS011;9947;57.722;12.012;2023-09-08T03:13:25;0.80;;;0.80;;
19599;SDS011;9947;57.722;12.012;2023-09-08T03:15:54;0.70;;;0.70;;
19599;SDS011;9947;57.722;12.012;2023-09-08T03:18:21;0.70;;;0.70;;
19599;SDS011;9947;57.722;12.012;2023-09-08T03:20:50;0.70;;;0.70;;
19599;SDS011;9947;57.722;12.012;2023-09-08T03:23:17;0.70;;;0.70;;
19599;SDS011;9947;57.722;12.012;2023-09-08T03:25:44;0.70;;;0.70;;
19599;SDS011;9947;57.722;12.012;2023-09-08T03:28:11;0.70;;;0.70;;
19599;SDS011;9947;57.722;12.012;2023-09-08T03:30:42;0.70;;;0.70;;
19599;SDS011;9947;57.722;12.012;2023-09-08T03:33:09;0.70;;;0.70;;
19599;SDS011;9947;57.722;12.012;2023-09-08T03:35:36;0.70;;;0.70;;
19599;SDS011;9947;57.722;12.012;2023-09-08T03:38:04;0.70;;;0.70;;
19599;SDS011;9947;57.722;12.012;2023-09-08T03:40:31;0.70;;;0.70;;
19599;SDS011;9947;57.722;12.012;2023-09-08T03:42:58;0.70;;;0.70;;
19599;SDS011;9947;57.722;12.012;2023-09-08T03:45:27;0.70;;;0.70;;
19599;SDS011;9947;57.722;12.012;2023-09-08T03:47:54;0.70;;;0.70;;
19599;SDS011;9947;57.722;12.012;2023-09-08T03:50:21;0.80;;;0.80;;
19599;SDS011;9947;57.722;12.012;2023-09-08T03:52:48;0.80;;;0.80;;
19599;SDS011;9947;57.722;12.012;2023-09-08T03:55:19;0.70;;;0.70;;
19599;SDS011;9947;57.722;12.012;2023-09-08T03:57:46;0.70;;;0.70;;
19599;SDS011;9947;57.722;12.012;2023-09-08T04:00:14;0.70;;;0.70;;
19599;SDS011;9947;57.722;12.012;2023-09-08T04:02:47;0.70;;;0.70;;
19599;SDS011;9947;57.722;12.012;2023-09-08T04:05:15;0.80;;;0.80;;
19599;SDS011;9947;57.722;12.012;2023-09-08T04:07:43;0.70;;;0.70;;
19599;SDS011;9947;57.722;12.012;2023-09-08T04:10:11;0.80;;;0.80;;
19599;SDS011;9947;57.722;12.012;2023-09-08T04:12:44;0.70;;;0.70;;
19599;SDS011;9947;57.722;12.012;2023-09-08T04:15:11;0.70;;;0.70;;
19599;SDS011;9947;57.722;12.012;2023-09-08T04:17:38;0.70;;;0.70;;
19599;SDS011;9947;57.722;12.012;2023-09-08T04:20:05;0.70;;;0.70;;
19599;SDS011;9947;57.722;12.012;2023-09-08T04:22:34;0.70;;;0.70;;
19599;SDS011;9947;57.722;12.012;2023-09-08T04:25:02;0.80;;;0.80;;
19599;SDS011;9947;57.722;12.012;2023-09-08T04:27:30;0.70;;;0.70;;
19599;SDS011;9947;57.722;12.012;2023-09-08T04:30:05;0.70;;;0.70;;
19599;SDS011;9947;57.722;12.012;2023-09-08T04:32:32;0.70;;;0.70;;
19599;SDS011;9947;57.722;12.012;2023-09-08T04:35:00;0.70;;;0.70;;
19599;SDS011;9947;57.722;12.012;2023-09-08T04:37:27;0.70;;;0.70;;
19599;SDS011;9947;57.722;12.012;2023-09-08T04:39:55;0.70;;;0.70;;
19599;SDS011;9947;57.722;12.012;2023-09-08T04:42:25;0.70;;;0.70;;
19599;SDS011;9947;57.722;12.012;2023-09-08T04:44:52;0.60;;;0.60;;
19599;SDS011;9947;57.722;12.012;2023-09-08T04:47:21;0.70;;;0.70;;
19599;SDS011;9947;57.722;12.012;2023-09-08T04:49:49;0.60;;;0.60;;
19599;SDS011;9947;57.722;12.012;2023-09-08T04:52:16;1.00;;;1.00;;
19599;SDS011;9947;57.722;12.012;2023-09-08T04:54:44;0.67;;;0.67;;
19599;SDS011;9947;57.722;12.012;2023-09-08T04:57:14;0.70;;;0.70;;
19599;SDS011;9947;57.722;12.012;2023-09-08T04:59:41;0.70;;;0.70;;
19599;SDS011;9947;57.722;12.012;2023-09-08T05:02:08;0.70;;;0.70;;
19599;SDS011;9947;57.722;12.012;2023-09-08T05:04:36;0.70;;;0.70;;
19599;SDS011;9947;57.722;12.012;2023-09-08T05:07:05;0.63;;;0.63;;
19599;SDS011;9947;57.722;12.012;2023-09-08T05:09:32;0.70;;;0.70;;
19599;SDS011;9947;57.722;12.012;2023-09-08T05:11:59;0.60;;;0.60;;
19599;SDS011;9947;57.722;12.012;2023-09-08T05:14:27;0.70;;;0.70;;
19599;SDS011;9947;57.722;12.012;2023-09-08T05:16:54;0.70;;;0.70;;
19599;SDS011;9947;57.722;12.012;2023-09-08T05:19:22;0.67;;;0.67;;
19599;SDS011;9947;57.722;12.012;2023-09-08T05:21:54;0.70;;;0.70;;
19599;SDS011;9947;57.722;12.012;2023-09-08T05:24:21;0.60;;;0.60;;
19599;SDS011;9947;57.722;12.012;2023-09-08T05:26:51;0.70;;;0.70;;
19599;SDS011;9947;57.722;12.012;2023-09-08T05:29:18;0.60;;;0.60;;
19599;SDS011;9947;57.722;12.012;2023-09-08T05:31:45;0.70;;;0.70;;
19599;SDS011;9947;57.722;12.012;2023-09-08T05:34:12;1.10;;;1.10;;
19599;SDS011;9947;57.722;12.012;2023-09-08T05:36:39;0.70;;;0.70;;
19599;SDS011;9947;57.722;12.012;2023-09-08T05:39:09;0.60;;;0.60;;
19599;SDS011;9947;57.722;12.012;2023-09-08T05:41:39;0.70;;;0.70;;
19599;SDS011;9947;57.722;12.012;2023-09-08T05:44:05;0.70;;;0.70;;
19599;SDS011;9947;57.722;12.012;2023-09-08T05:46:34;0.70;;;0.70;;
19599;SDS011;9947;57.722;12.012;2023-09-08T05:49:01;0.60;;;0.60;;
19599;SDS011;9947;57.722;12.012;2023-09-08T05:51:29;0.70;;;0.70;;
19599;SDS011;9947;57.722;12.012;2023-09-08T05:53:57;0.80;;;0.80;;
19599;SDS011;9947;57.722;12.012;2023-09-08T05:56:29;0.73;;;0.73;;
19599;SDS011;9947;57.722;12.012;2023-09-08T05:58:57;0.70;;;0.70;;
19599;SDS011;9947;57.722;12.012;2023-09-08T06:01:26;0.70;;;0.70;;
19599;SDS011;9947;57.722;12.012;2023-09-08T06:03:53;0.70;;;0.70;;
19599;SDS011;9947;57.722;12.012;2023-09-08T06:06:20;0.70;;;0.70;;
19599;SDS011;9947;57.722;12.012;2023-09-08T06:08:50;0.60;;;0.60;;
19599;SDS011;9947;57.722;12.012;2023-09-08T06:11:18;0.70;;;0.70;;
19599;SDS011;9947;57.722;12.012;2023-09-08T06:13:49;0.70;;;0.70;;
19599;SDS011;9947;57.722;12.012;2023-09-08T06:16:18;0.60;;;0.60;;
19599;SDS011;9947;57.722;12.012;2023-09-08T06:18:44;0.70;;;0.70;;
19599;SDS011;9947;57.722;12.012;2023-09-08T06:21:11;0.70;;;0.70;;
19599;SDS011;9947;57.722;12.012;2023-09-08T06:23:39;0.70;;;0.70;;
19599;SDS011;9947;57.722;12.012;2023-09-08T06:26:06;0.70;;;0.70;;
19599;SDS011;9947;57.722;12.012;2023-09-08T06:28:33;0.70;;;0.70;;
19599;SDS011;9947;57.722;12.012;2023-09-08T06:31:02;0.70;;;0.70;;
19599;SDS011;9947;57.722;12.012;2023-09-08T06:33:29;0.70;;;0.70;;
19599;SDS011;9947;57.722;12.012;2023-09-08T06:35:56;0.60;;;0.60;;
19599;SDS011;9947;57.722;12.012;2023-09-08T06:38:23;0.60;;;0.60;;
19599;SDS011;9947;57.722;12.012;2023-09-08T06:40:50;0.70;;;0.70;;
19599;SDS011;9947;57.722;12.012;2023-09-08T06:43:20;0.70;;;0.70;;
19599;SDS011;9947;57.722;12.012;2023-09-08T06:45:47;0.70;;;0.70;;
19599;SDS011;9947;57.722;12.012;2023-09-08T06:48:18;0.60;;;0.60;;
19599;SDS011;9947;57.722;12.012;2023-09-08T06:50:45;0.70;;;0.70;;
19599;SDS011;9947;57.722;12.012;2023-09-08T06:53:12;0.70;;;0.70;;
19599;SDS011;9947;57.722;12.012;2023-09-08T06:55:40;0.70;;;0.70;;
19599;SDS011;9947;57.722;12.012;2023-09-08T06:58:07;0.70;;;0.70;;
19599;SDS011;9947;57.722;12.012;2023-09-08T07:00:36;0.60;;;0.60;;
19599;SDS011;9947;57.722;12.012;2023-09-08T07:03:04;0.70;;;0.70;;
19599;SDS011;9947;57.722;12.012;2023-09-08T07:05:34;0.60;;;0.60;;
19599;SDS011;9947;57.722;12.012;2023-09-08T07:08:01;0.60;;;0.60;;
19599;SDS011;9947;57.722;12.012;2023-09-08T07:10:28;0.60;;;0.60;;
19599;SDS011;9947;57.722;12.012;2023-09-08T07:12:54;0.60;;;0.60;;
19599;SDS011;9947;57.722;12.012;2023-09-08T07:15:21;0.70;;;0.70;;
19599;SDS011;9947;57.722;12.012;2023-09-08T07:17:50;0.70;;;0.70;;
19599;SDS011;9947;57.722;12.012;2023-09-08T07:20:18;0.60;;;0.60;;
19599;SDS011;9947;57.722;12.012;2023-09-08T07:22:46;0.60;;;0.60;;
19599;SDS011;9947;57.722;12.012;2023-09-08T07:25:13;0.60;;;0.60;;
19599;SDS011;9947;57.722;12.012;2023-09-08T07:27:40;0.70;;;0.70;;
19599;SDS011;9947;57.722;12.012;2023-09-08T07:30:07;0.60;;;0.60;;
19599;SDS011;9947;57.722;12.012;2023-09-08T07:32:34;0.90;;;0.90;;
19599;SDS011;9947;57.722;12.012;2023-09-08T07:35:03;1.37;;;1.27;;
19599;SDS011;9947;57.722;12.012;2023-09-08T07:37:30;0.60;;;0.60;;
19599;SDS011;9947;57.722;12.012;2023-09-08T07:40:00;0.60;;;0.60;;
19599;SDS011;9947;57.722;12.012;2023-09-08T07:42:27;0.60;;;0.60;;
19599;SDS011;9947;57.722;12.012;2023-09-08T07:44:53;0.60;;;0.60;;
19599;SDS011;9947;57.722;12.012;2023-09-08T07:47:23;0.60;;;0.60;;
19599;SDS011;9947;57.722;12.012;2023-09-08T07:49:50;0.70;;;0.70;;
19599;SDS011;9947;57.722;12.012;2023-09-08T07:52:17;0.60;;;0.60;;
19599;SDS011;9947;57.722;12.012;2023-09-08T07:54:44;0.70;;;0.70;;
19599;SDS011;9947;57.722;12.012;2023-09-08T07:57:12;0.60;;;0.60;;
19599;SDS011;9947;57.722;12.012;2023-09-08T07:59:40;0.70;;;0.70;;
19599;SDS011;9947;57.722;12.012;2023-09-08T08:02:07;0.70;;;0.70;;
19599;SDS011;9947;57.722;12.012;2023-09-08T08:04:34;0.60;;;0.60;;
19599;SDS011;9947;57.722;12.012;2023-09-08T08:07:01;0.60;;;0.60;;
19599;SDS011;9947;57.722;12.012;2023-09-08T08:09:28;0.60;;;0.60;;
19599;SDS011;9947;57.722;12.012;2023-09-08T08:11:56;0.60;;;0.60;;
19599;SDS011;9947;57.722;12.012;2023-09-08T08:14:24;0.73;;;0.73;;
19599;SDS011;9947;57.722;12.012;2023-09-08T08:16:53;0.60;;;0.60;;
19599;SDS011;9947;57.722;12.012;2023-09-08T08:19:21;0.60;;;0.60;;
19599;SDS011;9947;57.722;12.012;2023-09-08T08:21:49;0.60;;;0.60;;
19599;SDS011;9947;57.722;12.012;2023-09-08T08:24:16;0.63;;;0.63;;
19599;SDS011;9947;57.722;12.012;2023-09-08T08:26:45;0.60;;;0.60;;
19599;SDS011;9947;57.722;12.012;2023-09-08T08:29:15;0.70;;;0.70;;
19599;SDS011;9947;57.722;12.012;2023-09-08T08:31:44;0.60;;;0.60;;
19599;SDS011;9947;57.722;12.012;2023-09-08T08:34:11;0.60;;;0.60;;
19599;SDS011;9947;57.722;12.012;2023-09-08T08:36:38;0.50;;;0.50;;
19599;SDS011;9947;57.722;12.012;2023-09-08T08:39:06;0.60;;;0.60;;
19599;SDS011;9947;57.722;12.012;2023-09-08T08:41:33;0.60;;;0.60;;
19599;SDS011;9947;57.722;12.012;2023-09-08T08:44:04;0.60;;;0.60;;
19599;SDS011;9947;57.722;12.012;2023-09-08T08:46:32;0.53;;;0.53;;
19599;SDS011;9947;57.722;12.012;2023-09-08T08:49:01;0.60;;;0.60;;
19599;SDS011;9947;57.722;12.012;2023-09-08T08:51:30;0.60;;;0.60;;
19599;SDS011;9947;57.722;12.012;2023-09-08T08:53:59;0.60;;;0.60;;
19599;SDS011;9947;57.722;12.012;2023-09-08T08:56:29;0.60;;;0.60;;
19599;SDS011;9947;57.722;12.012;2023-09-08T08:58:58;0.60;;;0.60;;
19599;SDS011;9947;57.722;12.012;2023-09-08T09:01:27;0.50;;;0.50;;
19599;SDS011;9947;57.722;12.012;2023-09-08T09:03:57;0.57;;;0.57;;
19599;SDS011;9947;57.722;12.012;2023-09-08T09:06:26;0.60;;;0.60;;
19599;SDS011;9947;57.722;12.012;2023-09-08T09:08:54;0.52;;;0.52;;
19599;SDS011;9947;57.722;12.012;2023-09-08T09:11:21;0.50;;;0.50;;
19599;SDS011;9947;57.722;12.012;2023-09-08T09:13:51;0.60;;;0.60;;
19599;SDS011;9947;57.722;12.012;2023-09-08T09:16:20;0.50;;;0.50;;
19599;SDS011;9947;57.722;12.012;2023-09-08T09:18:54;0.40;;;0.40;;
19599;SDS011;9947;57.722;12.012;2023-09-08T09:21:22;0.50;;;0.50;;
19599;SDS011;9947;57.722;12.012;2023-09-08T09:23:51;0.50;;;0.50;;
19599;SDS011;9947;57.722;12.012;2023-09-08T09:26:23;0.50;;;0.50;;
19599;SDS011;9947;57.722;12.012;2023-09-08T09:28:52;0.50;;;0.50;;
19599;SDS011;9947;57.722;12.012;2023-09-08T09:31:22;0.50;;;0.50;;
19599;SDS011;9947;57.722;12.012;2023-09-08T09:34:01;0.50;;;0.50;;
19599;SDS011;9947;57.722;12.012;2023-09-08T09:36:30;0.75;;;0.75;;
19599;SDS011;9947;57.722;12.012;2023-09-08T09:38:59;0.50;;;0.50;;
19599;SDS011;9947;57.722;12.012;2023-09-08T09:41:28;0.52;;;0.52;;
19599;SDS011;9947;57.722;12.012;2023-09-08T09:43:56;0.50;;;0.50;;
19599;SDS011;9947;57.722;12.012;2023-09-08T09:46:27;0.50;;;0.50;;
19599;SDS011;9947;57.722;12.012;2023-09-08T09:48:55;0.65;;;0.65;;
19599;SDS011;9947;57.722;12.012;2023-09-08T09:51:22;0.40;;;0.40;;
19599;SDS011;9947;57.722;12.012;2023-09-08T09:53:49;0.50;;;0.50;;
19599;SDS011;9947;57.722;12.012;2023-09-08T09:56:18;0.50;;;0.50;;
19599;SDS011;9947;57.722;12.012;2023-09-08T09:58:48;0.50;;;0.50;;
19599;SDS011;9947;57.722;12.012;2023-09-08T10:01:19;0.50;;;0.50;;
19599;SDS011;9947;57.722;12.012;2023-09-08T10:03:47;0.40;;;0.40;;
19599;SDS011;9947;57.722;12.012;2023-09-08T10:06:18;0.40;;;0.40;;
19599;SDS011;9947;57.722;12.012;2023-09-08T10:08:47;0.40;;;0.40;;
19599;SDS011;9947;57.722;12.012;2023-09-08T10:11:19;0.40;;;0.40;;
19599;SDS011;9947;57.722;12.012;2023-09-08T10:13:50;0.40;;;0.40;;
19599;SDS011;9947;57.722;12.012;2023-09-08T10:16:20;0.40;;;0.40;;
19599;SDS011;9947;57.722;12.012;2023-09-08T10:18:48;0.40;;;0.40;;
19599;SDS011;9947;57.722;12.012;2023-09-08T10:21:20;0.40;;;0.40;;
19599;SDS011;9947;57.722;12.012;2023-09-08T10:23:49;0.40;;;0.40;;
19599;SDS011;9947;57.722;12.012;2023-09-08T10:26:26;0.43;;;0.43;;
19599;SDS011;9947;57.722;12.012;2023-09-08T10:28:54;0.40;;;0.40;;
19599;SDS011;9947;57.722;12.012;2023-09-08T10:31:23;0.40;;;0.40;;
19599;SDS011;9947;57.722;12.012;2023-09-08T10:33:53;0.40;;;0.40;;
19599;SDS011;9947;57.722;12.012;2023-09-08T10:36:22;0.40;;;0.40;;
19599;SDS011;9947;57.722;12.012;2023-09-08T10:38:51;0.45;;;0.45;;
19599;SDS011;9947;57.722;12.012;2023-09-08T10:41:27;0.40;;;0.40;;
19599;SDS011;9947;57.722;12.012;2023-09-08T10:43:57;0.40;;;0.40;;
19599;SDS011;9947;57.722;12.012;2023-09-08T10:46:28;0.57;;;0.57;;
19599;SDS011;9947;57.722;12.012;2023-09-08T10:49:01;0.40;;;0.40;;
19599;SDS011;9947;57.722;12.012;2023-09-08T10:51:29;0.40;;;0.40;;
19599;SDS011;9947;57.722;12.012;2023-09-08T10:53:57;0.40;;;0.40;;
19599;SDS011;9947;57.722;12.012;2023-09-08T10:56:31;0.40;;;0.40;;
19599;SDS011;9947;57.722;12.012;2023-09-08T10:59:15;0.70;;;0.70;;
19599;SDS011;9947;57.722;12.012;2023-09-08T11:01:42;0.57;;;0.57;;
19599;SDS011;9947;57.722;12.012;2023-09-08T11:04:09;0.40;;;0.40;;
19599;SDS011;9947;57.722;12.012;2023-09-08T11:06:39;0.40;;;0.40;;
19599;SDS011;9947;57.722;12.012;2023-09-08T11:09:07;0.40;;;0.40;;
19599;SDS011;9947;57.722;12.012;2023-09-08T11:11:37;0.40;;;0.40;;
19599;SDS011;9947;57.722;12.012;2023-09-08T11:14:05;0.40;;;0.40;;
19599;SDS011;9947;57.722;12.012;2023-09-08T11:16:32;0.40;;;0.40;;
19599;SDS011;9947;57.722;12.012;2023-09-08T11:19:00;0.63;;;0.63;;
19599;SDS011;9947;57.722;12.012;2023-09-08T11:21:30;0.40;;;0.40;;
19599;SDS011;9947;57.722;12.012;2023-09-08T11:24:00;0.40;;;0.40;;
19599;SDS011;9947;57.722;12.012;2023-09-08T11:26:29;0.40;;;0.40;;
19599;SDS011;9947;57.722;12.012;2023-09-08T11:29:01;0.40;;;0.40;;
19599;SDS011;9947;57.722;12.012;2023-09-08T11:31:29;0.50;;;0.50;;
19599;SDS011;9947;57.722;12.012;2023-09-08T11:33:57;0.40;;;0.40;;
19599;SDS011;9947;57.722;12.012;2023-09-08T11:36:25;0.40;;;0.40;;
19599;SDS011;9947;57.722;12.012;2023-09-08T11:38:53;0.40;;;0.40;;
19599;SDS011;9947;57.722;12.012;2023-09-08T11:41:22;0.40;;;0.40;;
19599;SDS011;9947;57.722;12.012;2023-09-08T11:43:50;0.50;;;0.50;;
19599;SDS011;9947;57.722;12.012;2023-09-08T11:46:21;0.40;;;0.40;;
19599;SDS011;9947;57.722;12.012;2023-09-08T11:48:51;0.40;;;0.40;;
19599;SDS011;9947;57.722;12.012;2023-09-08T11:51:22;0.40;;;0.40;;
19599;SDS011;9947;57.722;12.012;2023-09-08T11:53:50;0.40;;;0.40;;
19599;SDS011;9947;57.722;12.012;2023-09-08T11:56:17;0.40;;;0.40;;
19599;SDS011;9947;57.722;12.012;2023-09-08T11:58:44;0.40;;;0.40;;
19599;SDS011;9947;57.722;12.012;2023-09-08T12:01:14;0.47;;;0.47;;
19599;SDS011;9947;57.722;12.012;2023-09-08T12:03:56;0.40;;;0.40;;
19599;SDS011;9947;57.722;12.012;2023-09-08T12:06:26;0.40;;;0.40;;
19599;SDS011;9947;57.722;12.012;2023-09-08T12:08:53;0.40;;;0.40;;
19599;SDS011;9947;57.722;12.012;2023-09-08T12:11:24;0.55;;;0.55;;
19599;SDS011;9947;57.722;12.012;2023-09-08T12:14:00;0.40;;;0.40;;
19599;SDS011;9947;57.722;12.012;2023-09-08T12:16:27;0.40;;;0.40;;
19599;SDS011;9947;57.722;12.012;2023-09-08T12:18:58;0.40;;;0.40;;
19599;SDS011;9947;57.722;12.012;2023-09-08T12:21:26;0.40;;;0.40;;
19599;SDS011;9947;57.722;12.012;2023-09-08T12:23:57;0.43;;;0.43;;
19599;SDS011;9947;57.722;12.012;2023-09-08T12:26:24;0.32;;;0.32;;
19599;SDS011;9947;57.722;12.012;2023-09-08T12:28:55;0.40;;;0.40;;
19599;SDS011;9947;57.722;12.012;2023-09-08T12:31:24;0.40;;;0.40;;
19599;SDS011;9947;57.722;12.012;2023-09-08T12:33:51;0.40;;;0.40;;
19599;SDS011;9947;57.722;12.012;2023-09-08T12:36:23;0.50;;;0.50;;
19599;SDS011;9947;57.722;12.012;2023-09-08T12:38:56;0.43;;;0.43;;
19599;SDS011;9947;57.722;12.012;2023-09-08T12:41:23;0.38;;;0.38;;
19599;SDS011;9947;57.722;12.012;2023-09-08T12:43:51;0.40;;;0.40;;
19599;SDS011;9947;57.722;12.012;2023-09-08T12:46:18;0.40;;;0.40;;
19599;SDS011;9947;57.722;12.012;2023-09-08T12:48:47;0.47;;;0.47;;
19599;SDS011;9947;57.722;12.012;2023-09-08T12:51:14;0.40;;;0.40;;
19599;SDS011;9947;57.722;12.012;2023-09-08T12:53:42;0.40;;;0.40;;
19599;SDS011;9947;57.722;12.012;2023-09-08T12:56:11;0.40;;;0.40;;
19599;SDS011;9947;57.722;12.012;2023-09-08T12:58:38;0.40;;;0.40;;
19599;SDS011;9947;57.722;12.012;2023-09-08T13:01:05;0.50;;;0.50;;
19599;SDS011;9947;57.722;12.012;2023-09-08T13:03:33;0.40;;;0.40;;
19599;SDS011;9947;57.722;12.012;2023-09-08T13:06:01;0.40;;;0.40;;
19599;SDS011;9947;57.722;12.012;2023-09-08T13:08:27;0.47;;;0.47;;
19599;SDS011;9947;57.722;12.012;2023-09-08T13:10:56;0.40;;;0.40;;
19599;SDS011;9947;57.722;12.012;2023-09-08T13:13:24;0.40;;;0.40;;
19599;SDS011;9947;57.722;12.012;2023-09-08T13:15:53;0.40;;;0.40;;
19599;SDS011;9947;57.722;12.012;2023-09-08T13:18:19;0.40;;;0.40;;
19599;SDS011;9947;57.722;12.012;2023-09-08T13:20:47;0.45;;;0.45;;
19599;SDS011;9947;57.722;12.012;2023-09-08T13:23:15;0.40;;;0.40;;
19599;SDS011;9947;57.722;12.012;2023-09-08T13:25:45;0.40;;;0.40;;
19599;SDS011;9947;57.722;12.012;2023-09-08T13:28:14;0.50;;;0.50;;
19599;SDS011;9947;57.722;12.012;2023-09-08T13:30:41;0.40;;;0.40;;
19599;SDS011;9947;57.722;12.012;2023-09-08T13:33:10;0.40;;;0.40;;
19599;SDS011;9947;57.722;12.012;2023-09-08T13:35:37;0.40;;;0.40;;
19599;SDS011;9947;57.722;12.012;2023-09-08T13:38:05;0.40;;;0.40;;
19599;SDS011;9947;57.722;12.012;2023-09-08T13:40:33;0.40;;;0.40;;
19599;SDS011;9947;57.722;12.012;2023-09-08T13:43:03;0.40;;;0.40;;
19599;SDS011;9947;57.722;12.012;2023-09-08T13:45:32;0.40;;;0.40;;
19599;SDS011;9947;57.722;12.012;2023-09-08T13:48:01;0.40;;;0.40;;
19599;SDS011;9947;57.722;12.012;2023-09-08T13:50:31;0.50;;;0.50;;
19599;SDS011;9947;57.722;12.012;2023-09-08T13:52:58;0.40;;;0.40;;
19599;SDS011;9947;57.722;12.012;2023-09-08T13:55:25;0.40;;;0.40;;
19599;SDS011;9947;57.722;12.012;2023-09-08T13:57:53;0.40;;;0.40;;
19599;SDS011;9947;57.722;12.012;2023-09-08T14:00:21;0.50;;;0.50;;
19599;SDS011;9947;57.722;12.012;2023-09-08T14:02:51;0.40;;;0.40;;
19599;SDS011;9947;57.722;12.012;2023-09-08T14:05:18;0.40;;;0.40;;
19599;SDS011;9947;57.722;12.012;2023-09-08T14:07:46;0.40;;;0.40;;
19599;SDS011;9947;57.722;12.012;2023-09-08T14:10:15;0.40;;;0.40;;
19599;SDS011;9947;57.722;12.012;2023-09-08T14:12:42;0.50;;;0.50;;
19599;SDS011;9947;57.722;12.012;2023-09-08T14:15:09;0.40;;;0.40;;
19599;SDS011;9947;57.722;12.012;2023-09-08T14:17:41;0.40;;;0.40;;
19599;SDS011;9947;57.722;12.012;2023-09-08T14:20:10;0.40;;;0.40;;
19599;SDS011;9947;57.722;12.012;2023-09-08T14:22:39;0.40;;;0.40;;
19599;SDS011;9947;57.722;12.012;2023-09-08T14:25:07;0.40;;;0.40;;
19599;SDS011;9947;57.722;12.012;2023-09-08T14:27:35;0.40;;;0.40;;
19599;SDS011;9947;57.722;12.012;2023-09-08T14:30:03;0.40;;;0.40;;
19599;SDS011;9947;57.722;12.012;2023-09-08T14:32:30;0.40;;;0.40;;
19599;SDS011;9947;57.722;12.012;2023-09-08T14:34:59;0.40;;;0.40;;
19599;SDS011;9947;57.722;12.012;2023-09-08T14:37:28;0.40;;;0.40;;
19599;SDS011;9947;57.722;12.012;2023-09-08T14:39:55;0.40;;;0.40;;
19599;SDS011;9947;57.722;12.012;2023-09-08T14:42:22;0.40;;;0.40;;
19599;SDS011;9947;57.722;12.012;2023-09-08T14:44:50;0.47;;;0.47;;
19599;SDS011;9947;57.722;12.012;2023-09-08T14:47:19;0.40;;;0.40;;
19599;SDS011;9947;57.722;12.012;2023-09-08T14:49:46;0.40;;;0.40;;
19599;SDS011;9947;57.722;12.012;2023-09-08T14:52:13;0.65;;;0.65;;
19599;SDS011;9947;57.722;12.012;2023-09-08T14:54:43;0.40;;;0.40;;
19599;SDS011;9947;57.722;12.012;2023-09-08T14:57:11;0.40;;;0.40;;
19599;SDS011;9947;57.722;12.012;2023-09-08T14:59:38;0.40;;;0.40;;
19599;SDS011;9947;57.722;12.012;2023-09-08T15:02:08;0.40;;;0.40;;
19599;SDS011;9947;57.722;12.012;2023-09-08T15:04:36;0.40;;;0.40;;